sensor_id;sensor_type;location;lat;lon;timestamp;temperature;humidity
12682;DHT22;6405;59.208;18.216;2023-03-01T00:01:31;1.40;99.90
12682;DHT22;6405;59.208;18.216;2023-03-01T00:03:58;1.30;99.90
12682;DHT22;6405;59.208;18.216;2023-03-01T00:06:25;1.20;99.90
12682;DHT22;6405;59.208;18.216;2023-03-01T00:08:51;1.10;99.90
12682;DHT22;6405;59.208;18.216;2023-03-01T00:11:20;1.20;99.90
12682;DHT22;6405;59.208;18.216;2023-03-01T00:13:48;1.10;99.90
12682;DHT22;6405;59.208;18.216;2023-03-01T00:16:22;1.10;99.90
12682;DHT22;6405;59.208;18.216;2023-03-01T00:18:48;1.00;99.90
12682;DHT22;6405;59.208;18.216;2023-03-01T00:21:14;1.00;99.90
12682;DHT22;6405;59.208;18.216;2023-03-01T00:23:40;1.00;99.90
12682;DHT22;6405;59.208;18.216;2023-03-01T00:26:07;0.90;99.90
12682;DHT22;6405;59.208;18.216;2023-03-01T00:28:34;0.90;99.90
12682;DHT22;6405;59.208;18.216;2023-03-01T00:31:08;0.90;99.90
12682;DHT22;6405;59.208;18.216;2023-03-01T00:33:35;0.80;99.90
12682;DHT22;6405;59.208;18.216;2023-03-01T00:36:02;0.70;99.90
12682;DHT22;6405;59.208;18.216;2023-03-01T00:38:28;0.80;99.90
12682;DHT22;6405;59.208;18.216;2023-03-01T00:40:53;0.80;99.90
12682;DHT22;6405;59.208;18.216;2023-03-01T00:43:19;0.70;99.90
12682;DHT22;6405;59.208;18.216;2023-03-01T00:45:45;0.70;99.90
12682;DHT22;6405;59.208;18.216;2023-03-01T00:48:10;0.60;99.90
12682;DHT22;6405;59.208;18.216;2023-03-01T00:50:36;0.60;99.90
12682;DHT22;6405;59.208;18.216;2023-03-01T00:53:02;0.60;99.90
12682;DHT22;6405;59.208;18.216;2023-03-01T00:55:27;0.50;99.90
12682;DHT22;6405;59.208;18.216;2023-03-01T00:57:53;0.40;99.90
12682;DHT22;6405;59.208;18.216;2023-03-01T01:00:19;0.40;99.90
12682;DHT22;6405;59.208;18.216;2023-03-01T01:02:45;0.30;99.90
12682;DHT22;6405;59.208;18.216;2023-03-01T01:05:12;0.30;99.90
12682;DHT22;6405;59.208;18.216;2023-03-01T01:07:38;0.30;99.90
12682;DHT22;6405;59.208;18.216;2023-03-01T01:10:04;0.30;99.90
12682;DHT22;6405;59.208;18.216;2023-03-01T01:12:30;0.20;99.90
12682;DHT22;6405;59.208;18.216;2023-03-01T01:14:55;0.20;99.90
12682;DHT22;6405;59.208;18.216;2023-03-01T01:17:21;0.10;99.90
12682;DHT22;6405;59.208;18.216;2023-03-01T01:19:47;0.00;99.90
12682;DHT22;6405;59.208;18.216;2023-03-01T01:22:13;-0.10;99.90
12682;DHT22;6405;59.208;18.216;2023-03-01T01:24:39;-0.20;99.90
12682;DHT22;6405;59.208;18.216;2023-03-01T01:27:04;-0.30;99.90
12682;DHT22;6405;59.208;18.216;2023-03-01T01:29:30;-0.40;99.90
12682;DHT22;6405;59.208;18.216;2023-03-01T01:31:55;-0.50;99.90
12682;DHT22;6405;59.208;18.216;2023-03-01T01:34:21;-0.60;99.90
12682;DHT22;6405;59.208;18.216;2023-03-01T01:36:49;-0.70;99.90
12682;DHT22;6405;59.208;18.216;2023-03-01T01:39:15;-0.80;99.90
12682;DHT22;6405;59.208;18.216;2023-03-01T01:41:42;-0.90;99.90
12682;DHT22;6405;59.208;18.216;2023-03-01T01:44:25;-0.90;99.90
12682;DHT22;6405;59.208;18.216;2023-03-01T01:47:06;-1.00;99.90
12682;DHT22;6405;59.208;18.216;2023-03-01T01:49:43;-1.00;99.90
12682;DHT22;6405;59.208;18.216;2023-03-01T01:52:18;-1.10;99.90
12682;DHT22;6405;59.208;18.216;2023-03-01T01:55:10;-1.20;99.90
12682;DHT22;6405;59.208;18.216;2023-03-01T01:57:48;-1.30;99.90
12682;DHT22;6405;59.208;18.216;2023-03-01T02:00:19;-1.30;99.90
12682;DHT22;6405;59.208;18.216;2023-03-01T02:02:47;-1.30;99.90
12682;DHT22;6405;59.208;18.216;2023-03-01T02:05:26;-1.30;99.90
12682;DHT22;6405;59.208;18.216;2023-03-01T02:07:53;-1.40;99.90
12682;DHT22;6405;59.208;18.216;2023-03-01T02:10:20;-1.40;99.90
12682;DHT22;6405;59.208;18.216;2023-03-01T02:12:46;-1.50;99.90
12682;DHT22;6405;59.208;18.216;2023-03-01T02:15:12;-1.50;99.90
12682;DHT22;6405;59.208;18.216;2023-03-01T02:17:38;-1.60;99.90
12682;DHT22;6405;59.208;18.216;2023-03-01T02:22:57;-1.60;99.90
12682;DHT22;6405;59.208;18.216;2023-03-01T02:25:47;-1.60;99.90
12682;DHT22;6405;59.208;18.216;2023-03-01T02:30:42;-1.80;99.90
12682;DHT22;6405;59.208;18.216;2023-03-01T02:33:29;-1.80;99.90
12682;DHT22;6405;59.208;18.216;2023-03-01T02:36:05;-1.80;99.90
12682;DHT22;6405;59.208;18.216;2023-03-01T02:38:32;-1.90;99.90
12682;DHT22;6405;59.208;18.216;2023-03-01T02:40:58;-1.90;99.90
12682;DHT22;6405;59.208;18.216;2023-03-01T02:43:29;-1.90;99.90
12682;DHT22;6405;59.208;18.216;2023-03-01T02:45:59;-2.00;99.90
12682;DHT22;6405;59.208;18.216;2023-03-01T02:48:27;-2.00;99.90
12682;DHT22;6405;59.208;18.216;2023-03-01T02:51:07;-2.10;99.90
12682;DHT22;6405;59.208;18.216;2023-03-01T02:54:00;-2.10;99.90
12682;DHT22;6405;59.208;18.216;2023-03-01T02:56:30;-2.20;99.90
12682;DHT22;6405;59.208;18.216;2023-03-01T02:58:56;-2.20;99.90
12682;DHT22;6405;59.208;18.216;2023-03-01T03:01:27;-2.20;99.90
12682;DHT22;6405;59.208;18.216;2023-03-01T03:04:04;-2.20;99.90
12682;DHT22;6405;59.208;18.216;2023-03-01T03:06:29;-2.20;99.90
12682;DHT22;6405;59.208;18.216;2023-03-01T03:08:55;-2.30;99.90
12682;DHT22;6405;59.208;18.216;2023-03-01T03:11:20;-2.30;99.90
12682;DHT22;6405;59.208;18.216;2023-03-01T03:13:46;-2.40;99.90
12682;DHT22;6405;59.208;18.216;2023-03-01T03:16:14;-2.40;99.90
12682;DHT22;6405;59.208;18.216;2023-03-01T03:18:39;-2.40;99.90
12682;DHT22;6405;59.208;18.216;2023-03-01T03:21:08;-2.50;99.90
12682;DHT22;6405;59.208;18.216;2023-03-01T03:23:38;-2.50;99.90
12682;DHT22;6405;59.208;18.216;2023-03-01T03:26:04;-2.40;99.90
12682;DHT22;6405;59.208;18.216;2023-03-01T03:28:32;-2.40;99.90
12682;DHT22;6405;59.208;18.216;2023-03-01T03:30:57;-2.40;99.90
12682;DHT22;6405;59.208;18.216;2023-03-01T03:33:24;-2.40;99.90
12682;DHT22;6405;59.208;18.216;2023-03-01T03:35:50;-2.40;99.90
12682;DHT22;6405;59.208;18.216;2023-03-01T03:38:18;-2.40;99.90
12682;DHT22;6405;59.208;18.216;2023-03-01T03:40:50;-2.40;99.90
12682;DHT22;6405;59.208;18.216;2023-03-01T03:43:21;-2.40;99.90
12682;DHT22;6405;59.208;18.216;2023-03-01T03:45:48;-2.40;99.90
12682;DHT22;6405;59.208;18.216;2023-03-01T03:48:15;-2.40;99.90
12682;DHT22;6405;59.208;18.216;2023-03-01T03:50:41;-2.50;99.90
12682;DHT22;6405;59.208;18.216;2023-03-01T03:53:09;-2.40;99.90
12682;DHT22;6405;59.208;18.216;2023-03-01T03:55:36;-2.50;99.90
12682;DHT22;6405;59.208;18.216;2023-03-01T03:58:06;-2.50;99.90
12682;DHT22;6405;59.208;18.216;2023-03-01T04:00:33;-2.50;99.90
12682;DHT22;6405;59.208;18.216;2023-03-01T04:03:00;-2.50;99.90
12682;DHT22;6405;59.208;18.216;2023-03-01T04:05:26;-2.50;99.90
12682;DHT22;6405;59.208;18.216;2023-03-01T04:07:52;-2.50;99.90
12682;DHT22;6405;59.208;18.216;2023-03-01T04:10:30;-2.50;99.90
12682;DHT22;6405;59.208;18.216;2023-03-01T04:12:57;-2.60;99.90
12682;DHT22;6405;59.208;18.216;2023-03-01T04:15:24;-2.60;99.90
12682;DHT22;6405;59.208;18.216;2023-03-01T04:17:52;-2.70;99.90
12682;DHT22;6405;59.208;18.216;2023-03-01T04:20:21;-2.70;99.90
12682;DHT22;6405;59.208;18.216;2023-03-01T04:22:58;-2.70;99.90
12682;DHT22;6405;59.208;18.216;2023-03-01T04:25:25;-2.70;99.90
12682;DHT22;6405;59.208;18.216;2023-03-01T04:27:50;-2.60;99.90
12682;DHT22;6405;59.208;18.216;2023-03-01T04:30:16;-2.70;99.90
12682;DHT22;6405;59.208;18.216;2023-03-01T04:32:42;-2.70;99.90
12682;DHT22;6405;59.208;18.216;2023-03-01T04:35:08;-2.70;99.90
12682;DHT22;6405;59.208;18.216;2023-03-01T04:37:34;-2.70;99.90
12682;DHT22;6405;59.208;18.216;2023-03-01T04:40:01;-2.70;99.90
12682;DHT22;6405;59.208;18.216;2023-03-01T04:42:37;-2.80;99.90
12682;DHT22;6405;59.208;18.216;2023-03-01T04:45:03;-2.80;99.90
12682;DHT22;6405;59.208;18.216;2023-03-01T04:47:42;-2.80;99.90
12682;DHT22;6405;59.208;18.216;2023-03-01T04:50:09;-2.80;99.90
12682;DHT22;6405;59.208;18.216;2023-03-01T04:52:35;-2.90;99.90
12682;DHT22;6405;59.208;18.216;2023-03-01T04:55:01;-2.90;99.90
12682;DHT22;6405;59.208;18.216;2023-03-01T04:57:29;-2.90;99.90
12682;DHT22;6405;59.208;18.216;2023-03-01T04:59:54;-2.90;99.90
12682;DHT22;6405;59.208;18.216;2023-03-01T05:02:20;-3.00;99.90
12682;DHT22;6405;59.208;18.216;2023-03-01T05:04:45;-3.00;99.90
12682;DHT22;6405;59.208;18.216;2023-03-01T05:07:11;-3.00;99.90
12682;DHT22;6405;59.208;18.216;2023-03-01T05:09:38;-3.00;99.90
12682;DHT22;6405;59.208;18.216;2023-03-01T05:12:04;-3.00;99.90
12682;DHT22;6405;59.208;18.216;2023-03-01T05:14:30;-3.10;99.90
12682;DHT22;6405;59.208;18.216;2023-03-01T05:16:56;-3.10;99.90
12682;DHT22;6405;59.208;18.216;2023-03-01T05:19:29;-3.00;99.90
12682;DHT22;6405;59.208;18.216;2023-03-01T05:21:56;-3.00;99.90
12682;DHT22;6405;59.208;18.216;2023-03-01T05:24:34;-3.00;99.90
12682;DHT22;6405;59.208;18.216;2023-03-01T05:27:02;-3.00;99.90
12682;DHT22;6405;59.208;18.216;2023-03-01T05:29:29;-3.00;99.90
12682;DHT22;6405;59.208;18.216;2023-03-01T05:31:58;-3.00;99.90
12682;DHT22;6405;59.208;18.216;2023-03-01T05:34:25;-3.00;99.90
12682;DHT22;6405;59.208;18.216;2023-03-01T05:36:51;-2.90;99.90
12682;DHT22;6405;59.208;18.216;2023-03-01T05:39:23;-3.00;99.90
12682;DHT22;6405;59.208;18.216;2023-03-01T05:41:53;-3.10;99.90
12682;DHT22;6405;59.208;18.216;2023-03-01T05:44:19;-3.10;99.90
12682;DHT22;6405;59.208;18.216;2023-03-01T05:46:46;-3.20;99.90
12682;DHT22;6405;59.208;18.216;2023-03-01T05:49:12;-3.10;99.90
12682;DHT22;6405;59.208;18.216;2023-03-01T05:51:42;-3.10;99.90
12682;DHT22;6405;59.208;18.216;2023-03-01T05:54:09;-3.10;99.90
12682;DHT22;6405;59.208;18.216;2023-03-01T05:56:35;-3.00;99.90
12682;DHT22;6405;59.208;18.216;2023-03-01T05:59:03;-3.10;99.90
12682;DHT22;6405;59.208;18.216;2023-03-01T06:01:30;-3.10;99.90
12682;DHT22;6405;59.208;18.216;2023-03-01T06:03:56;-3.10;99.90
12682;DHT22;6405;59.208;18.216;2023-03-01T06:06:22;-3.00;99.90
12682;DHT22;6405;59.208;18.216;2023-03-01T06:08:48;-3.00;99.90
12682;DHT22;6405;59.208;18.216;2023-03-01T06:11:13;-2.90;99.90
12682;DHT22;6405;59.208;18.216;2023-03-01T06:13:41;-2.90;99.90
12682;DHT22;6405;59.208;18.216;2023-03-01T06:16:07;-2.80;99.90
12682;DHT22;6405;59.208;18.216;2023-03-01T06:18:33;-2.80;99.90
12682;DHT22;6405;59.208;18.216;2023-03-01T06:20:59;-2.80;99.90
12682;DHT22;6405;59.208;18.216;2023-03-01T06:23:25;-2.80;99.90
12682;DHT22;6405;59.208;18.216;2023-03-01T06:25:51;-2.80;99.90
12682;DHT22;6405;59.208;18.216;2023-03-01T06:28:16;-2.70;99.90
12682;DHT22;6405;59.208;18.216;2023-03-01T06:30:42;-2.60;99.90
12682;DHT22;6405;59.208;18.216;2023-03-01T06:33:08;-2.60;99.90
12682;DHT22;6405;59.208;18.216;2023-03-01T06:35:34;-2.60;99.90
12682;DHT22;6405;59.208;18.216;2023-03-01T06:38:01;-2.60;99.90
12682;DHT22;6405;59.208;18.216;2023-03-01T06:40:27;-2.50;99.90
12682;DHT22;6405;59.208;18.216;2023-03-01T06:42:53;-2.50;99.90
12682;DHT22;6405;59.208;18.216;2023-03-01T06:45:20;-2.40;99.90
12682;DHT22;6405;59.208;18.216;2023-03-01T06:47:46;-2.40;99.90
12682;DHT22;6405;59.208;18.216;2023-03-01T06:50:13;-2.30;99.90
12682;DHT22;6405;59.208;18.216;2023-03-01T06:52:39;-2.30;99.90
12682;DHT22;6405;59.208;18.216;2023-03-01T06:55:05;-2.10;99.90
12682;DHT22;6405;59.208;18.216;2023-03-01T06:57:31;-2.00;99.90
12682;DHT22;6405;59.208;18.216;2023-03-01T06:59:56;-1.90;99.90
12682;DHT22;6405;59.208;18.216;2023-03-01T07:02:22;-1.80;99.90
12682;DHT22;6405;59.208;18.216;2023-03-01T07:04:51;-1.80;99.90
12682;DHT22;6405;59.208;18.216;2023-03-01T07:07:17;-1.70;99.90
12682;DHT22;6405;59.208;18.216;2023-03-01T07:09:44;-1.70;99.90
12682;DHT22;6405;59.208;18.216;2023-03-01T07:12:10;-1.60;99.90
12682;DHT22;6405;59.208;18.216;2023-03-01T07:14:35;-1.50;99.90
12682;DHT22;6405;59.208;18.216;2023-03-01T07:17:01;-1.40;99.90
12682;DHT22;6405;59.208;18.216;2023-03-01T07:19:27;-1.30;99.90
12682;DHT22;6405;59.208;18.216;2023-03-01T07:21:53;-1.30;99.90
12682;DHT22;6405;59.208;18.216;2023-03-01T07:24:19;-1.10;99.90
12682;DHT22;6405;59.208;18.216;2023-03-01T07:26:48;-1.00;99.90
12682;DHT22;6405;59.208;18.216;2023-03-01T07:29:14;-1.00;99.90
12682;DHT22;6405;59.208;18.216;2023-03-01T07:31:40;-0.90;99.90
12682;DHT22;6405;59.208;18.216;2023-03-01T07:34:05;-0.80;99.90
12682;DHT22;6405;59.208;18.216;2023-03-01T07:36:31;-0.80;99.90
12682;DHT22;6405;59.208;18.216;2023-03-01T07:38:57;-0.70;99.90
12682;DHT22;6405;59.208;18.216;2023-03-01T07:41:23;-0.60;99.90
12682;DHT22;6405;59.208;18.216;2023-03-01T07:43:48;-0.50;99.90
12682;DHT22;6405;59.208;18.216;2023-03-01T07:46:14;-0.50;99.90
12682;DHT22;6405;59.208;18.216;2023-03-01T07:48:40;-0.40;99.90
12682;DHT22;6405;59.208;18.216;2023-03-01T07:51:07;-0.30;99.90
12682;DHT22;6405;59.208;18.216;2023-03-01T07:53:33;-0.20;99.90
12682;DHT22;6405;59.208;18.216;2023-03-01T07:56:13;-0.10;99.90
12682;DHT22;6405;59.208;18.216;2023-03-01T07:58:41;0.00;99.90
12682;DHT22;6405;59.208;18.216;2023-03-01T08:01:09;0.10;99.90
12682;DHT22;6405;59.208;18.216;2023-03-01T08:03:35;0.10;99.90
12682;DHT22;6405;59.208;18.216;2023-03-01T08:06:03;0.20;99.90
12682;DHT22;6405;59.208;18.216;2023-03-01T08:08:29;0.20;99.90
12682;DHT22;6405;59.208;18.216;2023-03-01T08:11:02;0.40;99.90
12682;DHT22;6405;59.208;18.216;2023-03-01T08:13:29;0.40;99.90
12682;DHT22;6405;59.208;18.216;2023-03-01T08:15:59;0.40;99.90
12682;DHT22;6405;59.208;18.216;2023-03-01T08:18:25;0.50;99.90
12682;DHT22;6405;59.208;18.216;2023-03-01T08:20:51;0.70;99.90
12682;DHT22;6405;59.208;18.216;2023-03-01T08:23:16;0.70;99.90
12682;DHT22;6405;59.208;18.216;2023-03-01T08:25:42;0.80;99.90
12682;DHT22;6405;59.208;18.216;2023-03-01T08:28:08;0.90;99.90
12682;DHT22;6405;59.208;18.216;2023-03-01T08:30:34;1.00;99.90
12682;DHT22;6405;59.208;18.216;2023-03-01T08:33:00;1.20;99.90
12682;DHT22;6405;59.208;18.216;2023-03-01T08:35:25;1.20;99.90
12682;DHT22;6405;59.208;18.216;2023-03-01T08:37:51;1.30;99.90
12682;DHT22;6405;59.208;18.216;2023-03-01T08:40:17;1.40;99.90
12682;DHT22;6405;59.208;18.216;2023-03-01T08:42:42;1.50;99.90
12682;DHT22;6405;59.208;18.216;2023-03-01T08:45:09;1.70;99.90
12682;DHT22;6405;59.208;18.216;2023-03-01T08:47:35;1.80;99.90
12682;DHT22;6405;59.208;18.216;2023-03-01T08:50:02;1.90;99.90
12682;DHT22;6405;59.208;18.216;2023-03-01T08:52:28;1.90;99.90
12682;DHT22;6405;59.208;18.216;2023-03-01T08:54:55;2.00;99.90
12682;DHT22;6405;59.208;18.216;2023-03-01T08:57:21;2.00;99.90
12682;DHT22;6405;59.208;18.216;2023-03-01T08:59:47;2.10;99.90
12682;DHT22;6405;59.208;18.216;2023-03-01T09:02:15;2.10;99.90
12682;DHT22;6405;59.208;18.216;2023-03-01T09:04:41;2.20;99.90
12682;DHT22;6405;59.208;18.216;2023-03-01T09:07:07;2.20;99.90
12682;DHT22;6405;59.208;18.216;2023-03-01T09:09:33;2.20;99.90
12682;DHT22;6405;59.208;18.216;2023-03-01T09:11:59;2.30;99.90
12682;DHT22;6405;59.208;18.216;2023-03-01T09:14:24;2.40;99.90
12682;DHT22;6405;59.208;18.216;2023-03-01T09:16:50;2.50;99.90
12682;DHT22;6405;59.208;18.216;2023-03-01T09:19:16;2.50;99.90
12682;DHT22;6405;59.208;18.216;2023-03-01T09:21:42;2.60;99.90
12682;DHT22;6405;59.208;18.216;2023-03-01T09:24:17;2.60;99.90
12682;DHT22;6405;59.208;18.216;2023-03-01T09:26:43;2.70;99.90
12682;DHT22;6405;59.208;18.216;2023-03-01T09:29:12;2.80;99.90
12682;DHT22;6405;59.208;18.216;2023-03-01T09:31:38;2.90;99.90
12682;DHT22;6405;59.208;18.216;2023-03-01T09:34:04;2.90;99.90
12682;DHT22;6405;59.208;18.216;2023-03-01T09:36:30;3.00;99.90
12682;DHT22;6405;59.208;18.216;2023-03-01T09:38:57;3.00;99.90
12682;DHT22;6405;59.208;18.216;2023-03-01T09:41:38;3.10;99.90
12682;DHT22;6405;59.208;18.216;2023-03-01T09:46:58;3.20;99.90
12682;DHT22;6405;59.208;18.216;2023-03-01T09:49:27;3.20;99.90
12682;DHT22;6405;59.208;18.216;2023-03-01T09:54:45;3.30;99.90
12682;DHT22;6405;59.208;18.216;2023-03-01T10:06:06;3.60;99.90
12682;DHT22;6405;59.208;18.216;2023-03-01T10:08:43;3.70;99.90
12682;DHT22;6405;59.208;18.216;2023-03-01T10:11:22;3.80;99.90
12682;DHT22;6405;59.208;18.216;2023-03-01T10:14:23;3.80;99.90
12682;DHT22;6405;59.208;18.216;2023-03-01T10:17:02;4.00;99.90
12682;DHT22;6405;59.208;18.216;2023-03-01T10:19:43;4.00;99.90
12682;DHT22;6405;59.208;18.216;2023-03-01T10:22:20;4.10;99.90
12682;DHT22;6405;59.208;18.216;2023-03-01T10:24:51;4.20;99.90
12682;DHT22;6405;59.208;18.216;2023-03-01T10:27:26;4.30;99.90
12682;DHT22;6405;59.208;18.216;2023-03-01T10:32:26;4.40;99.90
12682;DHT22;6405;59.208;18.216;2023-03-01T10:34:52;4.50;99.90
12682;DHT22;6405;59.208;18.216;2023-03-01T10:37:20;4.50;99.90
12682;DHT22;6405;59.208;18.216;2023-03-01T10:42:48;4.50;99.90
12682;DHT22;6405;59.208;18.216;2023-03-01T10:45:32;4.60;99.90
12682;DHT22;6405;59.208;18.216;2023-03-01T10:48:20;4.60;99.90
12682;DHT22;6405;59.208;18.216;2023-03-01T10:51:04;4.80;99.90
12682;DHT22;6405;59.208;18.216;2023-03-01T10:53:37;4.80;99.90
12682;DHT22;6405;59.208;18.216;2023-03-01T10:56:12;4.90;99.90
12682;DHT22;6405;59.208;18.216;2023-03-01T11:01:36;4.90;99.90
12682;DHT22;6405;59.208;18.216;2023-03-01T11:04:13;5.00;99.90
12682;DHT22;6405;59.208;18.216;2023-03-01T11:06:40;5.00;99.90
12682;DHT22;6405;59.208;18.216;2023-03-01T11:09:22;5.00;99.90
12682;DHT22;6405;59.208;18.216;2023-03-01T11:11:59;5.00;99.90
12682;DHT22;6405;59.208;18.216;2023-03-01T11:14:39;5.00;99.90
12682;DHT22;6405;59.208;18.216;2023-03-01T11:17:28;5.00;99.90
12682;DHT22;6405;59.208;18.216;2023-03-01T11:20:30;5.10;99.90
12682;DHT22;6405;59.208;18.216;2023-03-01T11:23:04;5.10;99.90
12682;DHT22;6405;59.208;18.216;2023-03-01T11:25:35;5.10;99.90
12682;DHT22;6405;59.208;18.216;2023-03-01T11:28:05;5.20;99.90
12682;DHT22;6405;59.208;18.216;2023-03-01T11:35:40;5.40;99.90
12682;DHT22;6405;59.208;18.216;2023-03-01T11:40:47;5.40;99.90
12682;DHT22;6405;59.208;18.216;2023-03-01T11:43:28;5.40;99.90
12682;DHT22;6405;59.208;18.216;2023-03-01T11:56:52;5.80;99.90
12682;DHT22;6405;59.208;18.216;2023-03-01T12:08:01;5.90;99.90
12682;DHT22;6405;59.208;18.216;2023-03-01T12:10:52;5.90;99.90
12682;DHT22;6405;59.208;18.216;2023-03-01T12:25:08;6.10;99.90
12682;DHT22;6405;59.208;18.216;2023-03-01T12:33:29;6.20;99.90
12682;DHT22;6405;59.208;18.216;2023-03-01T12:38:44;6.30;99.90
12682;DHT22;6405;59.208;18.216;2023-03-01T12:41:26;6.30;99.90
12682;DHT22;6405;59.208;18.216;2023-03-01T12:47:48;6.30;99.90
12682;DHT22;6405;59.208;18.216;2023-03-01T12:49:51;6.40;99.90
12682;DHT22;6405;59.208;18.216;2023-03-01T12:52:45;6.40;99.90
12682;DHT22;6405;59.208;18.216;2023-03-01T12:55:38;6.40;99.90
12682;DHT22;6405;59.208;18.216;2023-03-01T13:00:52;6.50;99.90
12682;DHT22;6405;59.208;18.216;2023-03-01T13:03:36;6.50;99.90
12682;DHT22;6405;59.208;18.216;2023-03-01T13:08:57;6.40;99.90
12682;DHT22;6405;59.208;18.216;2023-03-01T13:11:26;6.40;99.90
12682;DHT22;6405;59.208;18.216;2023-03-01T13:16:47;6.40;99.90
12682;DHT22;6405;59.208;18.216;2023-03-01T13:19:18;6.50;99.90
12682;DHT22;6405;59.208;18.216;2023-03-01T13:21:45;6.50;99.90
12682;DHT22;6405;59.208;18.216;2023-03-01T13:24:27;6.50;99.90
12682;DHT22;6405;59.208;18.216;2023-03-01T13:29:50;6.50;99.90
12682;DHT22;6405;59.208;18.216;2023-03-01T13:35:40;6.50;99.90
12682;DHT22;6405;59.208;18.216;2023-03-01T13:37:43;6.50;99.90
12682;DHT22;6405;59.208;18.216;2023-03-01T13:42:44;6.50;99.90
12682;DHT22;6405;59.208;18.216;2023-03-01T13:45:39;6.50;99.90
12682;DHT22;6405;59.208;18.216;2023-03-01T13:48:16;6.50;99.90
12682;DHT22;6405;59.208;18.216;2023-03-01T13:50:51;6.50;99.90
12682;DHT22;6405;59.208;18.216;2023-03-01T13:53:19;6.50;99.90
12682;DHT22;6405;59.208;18.216;2023-03-01T13:55:53;6.50;99.90
12682;DHT22;6405;59.208;18.216;2023-03-01T13:58:32;6.50;99.90
12682;DHT22;6405;59.208;18.216;2023-03-01T14:01:02;6.60;99.90
12682;DHT22;6405;59.208;18.216;2023-03-01T14:03:29;6.50;99.90
12682;DHT22;6405;59.208;18.216;2023-03-01T14:06:00;6.60;99.90
12682;DHT22;6405;59.208;18.216;2023-03-01T14:08:29;6.60;99.90
12682;DHT22;6405;59.208;18.216;2023-03-01T14:11:20;6.50;99.90
12682;DHT22;6405;59.208;18.216;2023-03-01T14:17:08;6.50;99.90
12682;DHT22;6405;59.208;18.216;2023-03-01T14:19:36;6.50;99.90
12682;DHT22;6405;59.208;18.216;2023-03-01T14:22:47;6.50;99.90
12682;DHT22;6405;59.208;18.216;2023-03-01T14:24:55;6.50;99.90
12682;DHT22;6405;59.208;18.216;2023-03-01T14:27:21;6.50;99.90
12682;DHT22;6405;59.208;18.216;2023-03-01T14:30:00;6.60;99.90
12682;DHT22;6405;59.208;18.216;2023-03-01T14:32:31;6.70;99.90
12682;DHT22;6405;59.208;18.216;2023-03-01T14:34:59;6.80;99.90
12682;DHT22;6405;59.208;18.216;2023-03-01T14:37:30;6.80;99.90
12682;DHT22;6405;59.208;18.216;2023-03-01T14:39:58;6.80;99.90
12682;DHT22;6405;59.208;18.216;2023-03-01T14:42:28;6.70;99.90
12682;DHT22;6405;59.208;18.216;2023-03-01T14:44:56;6.60;99.90
12682;DHT22;6405;59.208;18.216;2023-03-01T14:47:32;6.50;99.90
12682;DHT22;6405;59.208;18.216;2023-03-01T14:50:21;6.50;99.90
12682;DHT22;6405;59.208;18.216;2023-03-01T14:52:50;6.40;99.90
12682;DHT22;6405;59.208;18.216;2023-03-01T14:55:23;6.40;99.90
12682;DHT22;6405;59.208;18.216;2023-03-01T14:57:51;6.30;99.90
12682;DHT22;6405;59.208;18.216;2023-03-01T15:00:18;6.30;99.90
12682;DHT22;6405;59.208;18.216;2023-03-01T15:02:47;6.30;99.90
12682;DHT22;6405;59.208;18.216;2023-03-01T15:05:15;6.20;99.90
12682;DHT22;6405;59.208;18.216;2023-03-01T15:07:43;6.10;99.90
12682;DHT22;6405;59.208;18.216;2023-03-01T15:10:22;6.10;99.90
12682;DHT22;6405;59.208;18.216;2023-03-01T15:12:49;6.00;99.90
12682;DHT22;6405;59.208;18.216;2023-03-01T15:15:32;6.00;99.90
12682;DHT22;6405;59.208;18.216;2023-03-01T15:18:00;5.90;99.90
12682;DHT22;6405;59.208;18.216;2023-03-01T15:20:28;5.90;99.90
12682;DHT22;6405;59.208;18.216;2023-03-01T15:22:56;5.90;99.90
12682;DHT22;6405;59.208;18.216;2023-03-01T15:25:27;5.80;99.90
12682;DHT22;6405;59.208;18.216;2023-03-01T15:27:55;5.80;99.90
12682;DHT22;6405;59.208;18.216;2023-03-01T15:30:32;5.80;99.90
12682;DHT22;6405;59.208;18.216;2023-03-01T15:33:36;5.70;99.90
12682;DHT22;6405;59.208;18.216;2023-03-01T15:38:58;5.60;99.90
12682;DHT22;6405;59.208;18.216;2023-03-01T15:41:37;5.60;99.90
12682;DHT22;6405;59.208;18.216;2023-03-01T15:44:25;5.50;99.90
12682;DHT22;6405;59.208;18.216;2023-03-01T15:46:50;5.50;99.90
12682;DHT22;6405;59.208;18.216;2023-03-01T15:49:41;5.40;99.90
12682;DHT22;6405;59.208;18.216;2023-03-01T15:52:22;5.40;99.90
12682;DHT22;6405;59.208;18.216;2023-03-01T15:54:55;5.30;99.90
12682;DHT22;6405;59.208;18.216;2023-03-01T15:57:21;5.30;99.90
12682;DHT22;6405;59.208;18.216;2023-03-01T15:59:47;5.30;99.90
12682;DHT22;6405;59.208;18.216;2023-03-01T16:02:12;5.20;99.90
12682;DHT22;6405;59.208;18.216;2023-03-01T16:04:39;5.20;99.90
12682;DHT22;6405;59.208;18.216;2023-03-01T16:07:05;5.10;99.90
12682;DHT22;6405;59.208;18.216;2023-03-01T16:09:31;5.20;99.90
12682;DHT22;6405;59.208;18.216;2023-03-01T16:11:56;5.10;99.90
12682;DHT22;6405;59.208;18.216;2023-03-01T16:14:22;5.10;99.90
12682;DHT22;6405;59.208;18.216;2023-03-01T16:16:48;5.10;99.90
12682;DHT22;6405;59.208;18.216;2023-03-01T16:19:14;5.00;99.90
12682;DHT22;6405;59.208;18.216;2023-03-01T16:21:41;5.00;99.90
12682;DHT22;6405;59.208;18.216;2023-03-01T16:24:07;5.10;99.90
12682;DHT22;6405;59.208;18.216;2023-03-01T16:26:33;5.10;99.90
12682;DHT22;6405;59.208;18.216;2023-03-01T16:28:59;5.00;99.90
12682;DHT22;6405;59.208;18.216;2023-03-01T16:31:25;5.00;99.90
12682;DHT22;6405;59.208;18.216;2023-03-01T16:33:58;5.00;99.90
12682;DHT22;6405;59.208;18.216;2023-03-01T16:36:25;4.90;99.90
12682;DHT22;6405;59.208;18.216;2023-03-01T16:38:52;4.90;99.90
12682;DHT22;6405;59.208;18.216;2023-03-01T16:41:20;4.90;99.90
12682;DHT22;6405;59.208;18.216;2023-03-01T16:43:47;4.90;99.90
12682;DHT22;6405;59.208;18.216;2023-03-01T16:46:24;4.80;99.90
12682;DHT22;6405;59.208;18.216;2023-03-01T16:48:50;4.70;99.90
12682;DHT22;6405;59.208;18.216;2023-03-01T16:51:17;4.70;99.90
12682;DHT22;6405;59.208;18.216;2023-03-01T16:53:43;4.60;99.90
12682;DHT22;6405;59.208;18.216;2023-03-01T16:56:10;4.60;99.90
12682;DHT22;6405;59.208;18.216;2023-03-01T16:58:37;4.60;99.90
12682;DHT22;6405;59.208;18.216;2023-03-01T17:01:05;4.50;99.90
12682;DHT22;6405;59.208;18.216;2023-03-01T17:03:30;4.50;99.90
12682;DHT22;6405;59.208;18.216;2023-03-01T17:05:56;4.50;99.90
12682;DHT22;6405;59.208;18.216;2023-03-01T17:08:22;4.50;99.90
12682;DHT22;6405;59.208;18.216;2023-03-01T17:10:47;4.50;99.90
12682;DHT22;6405;59.208;18.216;2023-03-01T17:13:13;4.50;99.90
12682;DHT22;6405;59.208;18.216;2023-03-01T17:15:42;4.50;99.90
12682;DHT22;6405;59.208;18.216;2023-03-01T17:18:08;4.50;99.90
12682;DHT22;6405;59.208;18.216;2023-03-01T17:20:34;4.40;99.90
12682;DHT22;6405;59.208;18.216;2023-03-01T17:23:00;4.40;99.90
12682;DHT22;6405;59.208;18.216;2023-03-01T17:25:25;4.40;99.90
12682;DHT22;6405;59.208;18.216;2023-03-01T17:27:51;4.40;99.90
12682;DHT22;6405;59.208;18.216;2023-03-01T17:30:17;4.40;99.90
12682;DHT22;6405;59.208;18.216;2023-03-01T17:32:43;4.30;99.90
12682;DHT22;6405;59.208;18.216;2023-03-01T17:35:09;4.30;99.90
12682;DHT22;6405;59.208;18.216;2023-03-01T17:37:37;4.50;99.90